• Join FlightAware (Why Join?)
  • Login
  • US Flag 
07:19PM EDT


 

Airport Tracker/Info


-or-


 

Live Flight TrackerFlight Track Log ✈ CCA833 ✈ 15-Jul-2013 ✈ ZSPD / PVG - LFPG / CDG

Flight Track Log - Related Links

Times and Time Zones

All times are in EDT time to prevent confusion due to time zone crossing. See the CCA833 flight status page for this flight to view local times or setup timezone preferences in your user account.

Time Position Orientation Groundspeed Altitude Reporting Facility
EDT Latitude Longitude Course Direction KTS MPH feet Rate Location/Type
12:40PM 31.0430 121.8310 161° South 153 176 3,300  Level FlightAware
12:41PM 31.0290 121.8360 163° South 167 192 3,500 420 Climbing FlightAware
12:41PM 31.0130 121.8400 168° South 175 201 3,600 420 Climbing FlightAware
12:42PM 30.9930 121.8290 205° Southwest 201 231 3,800 600 Climbing FlightAware
12:42PM 30.9810 121.7950 248° West 246 283 4,200 960 Climbing FlightAware
12:43PM 30.9710 121.7540 254° West 265 305 4,800 1,380 Climbing FlightAware
12:43PM 30.9880 121.6690 283° West 324 373 6,200 1,560 Climbing FlightAware
12:44PM 31.0020 121.6360 296° West 313 360 7,000 1,800 Climbing FlightAware
12:45PM 31.0560 121.5060 296° West 321 369 9,400 1,740 Climbing FlightAware
12:45PM 31.0670 121.4790 295° West 321 369 9,800 1,020 Climbing FlightAware
12:46PM 31.0920 121.4160 295° West 343 395 10,400 780 Climbing FlightAware
12:47PM 31.1190 121.3540 297° West 366 421 10,800 840 Climbing FlightAware
12:47PM 31.1370 121.3320 314° West 380 437 11,100 900 Climbing FlightAware
12:48PM 31.2160 121.2780 330° Northwest 390 449 11,800 480 Climbing FlightAware
12:48PM 31.2730 121.2390 330° Northwest 395 455 11,800  Level FlightAware
12:49PM 31.3360 121.1960 330° Northwest 397 457 11,800  Level FlightAware
12:50PM 31.3990 121.1520 329° Northwest 395 455 11,800 540 Level FlightAware
12:50PM 31.4710 121.1050 331° Northwest 395 455 12,600 1,080 Climbing FlightAware
12:51PM 31.5370 121.0710 336° Northwest 405 466 13,400 1,260 Climbing FlightAware
12:52PM 31.6040 121.0350 335° Northwest 409 471 14,300 660 Climbing FlightAware
12:52PM 31.6590 121.0050 335° Northwest 409 471 14,300  Level FlightAware
12:53PM 31.7310 120.9660 335° Northwest 409 471 14,300 180 Level FlightAware
12:56PM 31.9447 120.7857 324° Northwest  Level Estimated
12:57PM 32.0396 120.7052 324° Northwest  Level Estimated
12:58PM 32.1345 120.6246 324° Northwest  Level Estimated
12:59PM 32.2293 120.5439 324° Northwest  Level Estimated
01:00PM 32.3241 120.4630 324° Northwest  Level Estimated
01:01PM 32.4188 120.3819 324° Northwest  Level Estimated
01:02PM 32.5134 120.3006 324° Northwest  Level Estimated
01:03PM 32.6080 120.2192 324° Northwest  Level Estimated
01:04PM 32.7026 120.1376 324° Northwest  Level Estimated
01:05PM 32.7971 120.0558 324° Northwest  Level Estimated
01:06PM 32.8915 119.9738 324° Northwest  Level Estimated
01:07PM 32.9859 119.8917 324° Northwest  Level Estimated
01:08PM 33.0803 119.8094 324° Northwest  Level Estimated
01:09PM 33.1745 119.7269 324° Northwest  Level Estimated
01:10PM 33.2688 119.6443 324° Northwest  Level Estimated
01:11PM 33.3629 119.5614 324° Northwest  Level Estimated
01:12PM 33.4571 119.4784 324° Northwest  Level Estimated
01:13PM 33.5511 119.3952 324° Northwest  Level Estimated
01:14PM 33.6451 119.3118 324° Northwest  Level Estimated
01:15PM 33.7391 119.2283 324° Northwest  Level Estimated
01:16PM 33.8330 119.1445 323° Northwest  Level Estimated
01:17PM 33.9268 119.0606 323° Northwest  Level Estimated
01:18PM 34.0206 118.9765 323° Northwest  Level Estimated
01:19PM 34.1143 118.8922 323° Northwest  Level Estimated
01:20PM 34.2080 118.8077 323° Northwest  Level Estimated
01:21PM 34.3016 118.7230 323° Northwest  Level Estimated
01:22PM 34.3951 118.6382 323° Northwest  Level Estimated
01:23PM 34.4886 118.5531 323° Northwest  Level Estimated
01:24PM 34.5821 118.4679 323° Northwest  Level Estimated
01:25PM 34.6754 118.3824 323° Northwest  Level Estimated
01:26PM 34.7687 118.2968 323° Northwest  Level Estimated
01:27PM 34.8620 118.2110 323° Northwest  Level Estimated
01:28PM 34.9552 118.1249 323° Northwest  Level Estimated
01:29PM 35.0483 118.0387 323° Northwest  Level Estimated
01:30PM 35.1414 117.9523 323° Northwest  Level Estimated
01:31PM 35.2344 117.8657 323° Northwest  Level Estimated
01:32PM 35.3273 117.7789 323° Northwest  Level Estimated
01:33PM 35.4202 117.6919 323° Northwest  Level Estimated
01:34PM 35.5130 117.6047 323° Northwest  Level Estimated
01:35PM 35.6058 117.5173 323° Northwest  Level Estimated
01:36PM 35.6985 117.4297 323° Northwest  Level Estimated
01:37PM 35.7911 117.3419 322° Northwest  Level Estimated
01:38PM 35.8837 117.2538 322° Northwest  Level Estimated
01:39PM 35.9762 117.1656 322° Northwest  Level Estimated
01:40PM 36.0686 117.0772 322° Northwest  Level Estimated
01:41PM 36.1610 116.9885 322° Northwest  Level Estimated
01:42PM 36.2533 116.8997 322° Northwest  Level Estimated
01:43PM 36.3455 116.8106 322° Northwest  Level Estimated
01:44PM 36.4377 116.7214 322° Northwest  Level Estimated
01:45PM 36.5298 116.6319 322° Northwest  Level Estimated
01:46PM 36.6219 116.5422 322° Northwest  Level Estimated
01:47PM 36.7138 116.4523 322° Northwest  Level Estimated
01:48PM 36.8058 116.3621 322° Northwest  Level Estimated
01:49PM 36.8976 116.2718 322° Northwest  Level Estimated
01:50PM 36.9894 116.1812 322° Northwest  Level Estimated
01:51PM 37.0811 116.0904 322° Northwest  Level Estimated
01:52PM 37.1727 115.9995 322° Northwest  Level Estimated
01:53PM 37.2643 115.9082 322° Northwest  Level Estimated
01:54PM 37.3557 115.8168 322° Northwest  Level Estimated
01:55PM 37.4472 115.7251 321° Northwest  Level Estimated
01:56PM 37.5385 115.6332 321° Northwest  Level Estimated
01:57PM 37.6298 115.5411 321° Northwest  Level Estimated
01:58PM 37.7210 115.4488 321° Northwest  Level Estimated
01:59PM 37.8121 115.3562 321° Northwest  Level Estimated
02:00PM 37.9032 115.2634 321° Northwest  Level Estimated
02:01PM 37.9942 115.1704 321° Northwest  Level Estimated
02:02PM 38.0851 115.0771 321° Northwest  Level Estimated
02:03PM 38.1759 114.9836 321° Northwest  Level Estimated
02:03PM 39.6300 116.7570 321° Northwest 483 556 30,100  Level FlightAware
02:04PM 38.2667 114.8899 321° Northwest  Level Estimated
02:04PM 39.7090 116.7560 359° North 482 555 30,100  Level FlightAware
02:05PM 39.8080 116.7550 360° North 480 552 30,100  Level FlightAware
02:07PM 39.9740 116.5825 321° Northwest  Level Estimated
02:07PM 40.0870 116.7550 321° Northwest 484 557 30,100  Level FlightAware
02:08PM 40.1800 116.7570 North 484 557 30,100  Level FlightAware
02:08PM 40.2510 116.7590 North 484 557 30,100  Level FlightAware
02:09PM 40.3420 116.7610 North 484 557 30,100  Level FlightAware
02:10PM 40.4110 116.7620 North 484 557 30,100  Level FlightAware
02:11PM 40.5020 116.7640 North 484 557 30,100  Level FlightAware
02:11PM 40.5860 116.7660 North 484 557 30,100  Level FlightAware
02:12PM 40.6520 116.7680 North 484 557 30,100  Level FlightAware
02:13PM 40.7440 116.7700 North 484 557 30,100  Level FlightAware
02:13PM 40.8120 116.7710 North 484 557 30,100  Level FlightAware
02:14PM 40.9040 116.7740 North 484 557 30,100  Level FlightAware
02:15PM 40.9510 116.7750 North 484 557 30,100  Level FlightAware
02:15PM 41.0200 116.7760 North 484 557 30,100  Level FlightAware
02:16PM 41.1110 116.7780 North 484 557 30,100 360 Level FlightAware
02:19PM 41.3463 116.5264 321° Northwest  Level Estimated
02:19PM 41.5240 116.0770 321° Northwest 32,100  Level FlightAware
02:20PM 41.4372 116.4285 321° Northwest  Level Estimated
02:20PM 41.5740 115.9810 305° West 443 510 32,100  Level FlightAware
02:21PM 41.6100 115.9120 305° West 443 510 32,100  Level FlightAware
02:21PM 41.6460 115.8430 305° West 443 510 32,100  Level FlightAware
02:22PM 41.6950 115.7500 305° West 443 510 32,100  Level FlightAware
02:23PM 41.7290 115.6850 305° West 443 510 32,100  Level FlightAware
02:23PM 41.7750 115.5970 305° West 443 510 32,100  Level FlightAware
02:24PM 41.8110 115.5280 305° West 443 510 32,100  Level FlightAware
02:25PM 41.8470 115.4590 305° West 443 510 32,100  Level FlightAware
02:25PM 41.8830 115.3900 305° West 443 510 32,100  Level FlightAware
02:26PM 41.9310 115.2980 305° West 443 510 32,100  Level FlightAware
02:27PM 41.9670 115.2290 305° West 443 510 32,100  Level FlightAware
02:27PM 42.0150 115.1370 305° West 443 510 32,100  Level FlightAware
02:28PM 42.0510 115.0670 305° West 443 510 32,100  Level FlightAware
02:29PM 42.0860 114.9980 304° West 443 510 32,100  Level FlightAware
02:30PM 42.1350 114.9040 305° West 443 510 32,100 -60 Level FlightAware
02:32PM 42.3143 114.7015 320° Northwest  Level Estimated
02:33PM 42.4039 114.5998 320° Northwest  Level Estimated
02:34PM 42.4933 114.4978 320° Northwest  Level Estimated
02:35PM 42.5826 114.3956 320° Northwest  Level Estimated
02:36PM 42.6719 114.2930 320° Northwest  Level Estimated
02:37PM 42.7610 114.1902 320° Northwest  Level Estimated
02:38PM 42.8501 114.0870 320° Northwest  Level Estimated
02:39PM 42.9391 113.9836 320° Northwest  Level Estimated
02:40PM 43.0280 113.8798 320° Northwest  Level Estimated
02:41PM 43.1168 113.7758 319° Northwest  Level Estimated
02:42PM 43.2054 113.6714 319° Northwest  Level Estimated
02:43PM 43.2940 113.5668 319° Northwest  Level Estimated
02:44PM 43.3825 113.4618 319° Northwest  Level Estimated
02:45PM 43.4710 113.3565 319° Northwest  Level Estimated
02:46PM 43.5593 113.2510 319° Northwest  Level Estimated
02:47PM 43.6475 113.1451 319° Northwest  Level Estimated
02:48PM 43.7356 113.0389 319° Northwest  Level Estimated
02:49PM 43.8236 112.9324 319° Northwest  Level Estimated
02:50PM 43.9115 112.8256 319° Northwest  Level Estimated
02:51PM 43.9994 112.7184 319° Northwest  Level Estimated
02:52PM 44.0871 112.6110 319° Northwest  Level Estimated
02:53PM 44.1747 112.5032 319° Northwest  Level Estimated
02:54PM 44.2622 112.3951 319° Northwest  Level Estimated
02:55PM 44.3496 112.2867 318° Northwest  Level Estimated
02:56PM 44.4369 112.1779 318° Northwest  Level Estimated
02:57PM 44.5241 112.0688 318° Northwest  Level Estimated
02:58PM 44.6112 111.9595 318° Northwest  Level Estimated
02:59PM 44.6982 111.8497 318° Northwest  Level Estimated
03:00PM 44.7851 111.7397 318° Northwest  Level Estimated
03:01PM 44.8719 111.6293 318° Northwest  Level Estimated
03:02PM 44.9586 111.5186 318° Northwest  Level Estimated
03:03PM 45.0452 111.4075 318° Northwest  Level Estimated
03:04PM 45.1316 111.2962 318° Northwest  Level Estimated
03:05PM 45.2180 111.1844 318° Northwest  Level Estimated
03:06PM 45.3042 111.0723 318° Northwest  Level Estimated
03:07PM 45.3904 110.9599 318° Northwest  Level Estimated
03:08PM 45.4764 110.8472 317° Northwest  Level Estimated
03:09PM 45.5623 110.7341 317° Northwest  Level Estimated
03:10PM 45.6481 110.6207 317° Northwest  Level Estimated
03:11PM 45.7338 110.5069 317° Northwest  Level Estimated
03:12PM 45.8194 110.3927 317° Northwest  Level Estimated
03:13PM 45.9048 110.2782 317° Northwest  Level Estimated
03:14PM 45.9902 110.1634 317° Northwest  Level Estimated
03:15PM 46.0754 110.0482 317° Northwest  Level Estimated
03:16PM 46.1605 109.9326 317° Northwest  Level Estimated
03:17PM 46.2455 109.8167 317° Northwest  Level Estimated
03:18PM 46.3304 109.7005 317° Northwest  Level Estimated
03:19PM 46.4152 109.5838 317° Northwest  Level Estimated
03:20PM 46.4998 109.4669 316° Northwest  Level Estimated
03:21PM 46.5843 109.3495 316° Northwest  Level Estimated
03:22PM 46.6687 109.2318 316° Northwest  Level Estimated
03:23PM 46.7530 109.1137 316° Northwest  Level Estimated
03:24PM 46.8372 108.9952 316° Northwest  Level Estimated
03:25PM 46.9212 108.8764 316° Northwest  Level Estimated
03:26PM 47.0051 108.7572 316° Northwest  Level Estimated
03:27PM 47.0889 108.6376 316° Northwest  Level Estimated
03:28PM 47.1726 108.5176 316° Northwest  Level Estimated
03:29PM 47.2561 108.3973 316° Northwest  Level Estimated
03:30PM 47.3395 108.2766 316° Northwest  Level Estimated
03:31PM 47.4228 108.1555 315° West  Level Estimated
03:32PM 47.5060 108.0340 315° West  Level Estimated
03:33PM 47.5890 107.9121 315° West  Level Estimated
03:34PM 47.6719 107.7899 315° West  Level Estimated
03:35PM 47.7547 107.6672 315° West  Level Estimated
03:36PM 47.8373 107.5442 315° West  Level Estimated
03:37PM 47.9198 107.4208 315° West  Level Estimated
03:38PM 48.0022 107.2970 315° West  Level Estimated
03:39PM 48.0845 107.1727 315° West  Level Estimated
03:40PM 48.1666 107.0481 315° West  Level Estimated
03:41PM 48.2485 106.9231 315° West  Level Estimated
03:42PM 48.3304 106.7977 314° West  Level Estimated
03:43PM 48.4121 106.6719 314° West  Level Estimated
03:44PM 48.4936 106.5457 314° West  Level Estimated
03:45PM 48.5751 106.4190 314° West  Level Estimated
03:46PM 48.6563 106.2920 314° West  Level Estimated
03:47PM 48.7375 106.1645 314° West  Level Estimated
03:48PM 48.8185 106.0367 314° West  Level Estimated
03:49PM 48.8993 105.9084 314° West  Level Estimated
03:50PM 48.9801 105.7797 314° West  Level Estimated
03:51PM 49.0606 105.6506 314° West  Level Estimated
03:52PM 49.1411 105.5211 314° West  Level Estimated
03:53PM 49.2214 105.3912 313° West  Level Estimated
03:54PM 49.3015 105.2608 313° West  Level Estimated
03:55PM 49.3815 105.1300 313° West  Level Estimated
03:56PM 49.4613 104.9988 313° West  Level Estimated
03:57PM 49.5410 104.8671 313° West  Level Estimated
03:58PM 49.6206 104.7351 313° West  Level Estimated
03:59PM 49.7000 104.6026 313° West  Level Estimated
04:00PM 49.7792 104.4696 313° West  Level Estimated
04:01PM 49.8583 104.3363 313° West  Level Estimated
04:02PM 49.9372 104.2025 313° West  Level Estimated
04:03PM 50.0160 104.0682 312° West  Level Estimated
04:04PM 50.0947 103.9335 312° West  Level Estimated
04:05PM 50.1731 103.7984 312° West  Level Estimated
04:06PM 50.2514 103.6628 312° West  Level Estimated
04:07PM 50.3296 103.5268 312° West  Level Estimated
04:08PM 50.4076 103.3903 312° West  Level Estimated
04:09PM 50.4854 103.2534 312° West  Level Estimated
04:10PM 50.5631 103.1160 312° West  Level Estimated
04:11PM 50.6406 102.9782 312° West  Level Estimated
04:12PM 50.7180 102.8399 311° West  Level Estimated
04:13PM 50.7952 102.7012 311° West  Level Estimated
04:14PM 50.8722 102.5620 311° West  Level Estimated
04:15PM 50.9490 102.4223 311° West  Level Estimated
04:16PM 51.0257 102.2822 311° West  Level Estimated
04:17PM 51.1022 102.1416 311° West  Level Estimated
04:18PM 51.1786 102.0006 311° West  Level Estimated
04:19PM 51.2548 101.8591 311° West  Level Estimated
04:20PM 51.3308 101.7171 311° West  Level Estimated
04:21PM 51.4066 101.5747 311° West  Level Estimated
04:22PM 51.4823 101.4317 310° West  Level Estimated
04:23PM 51.5578 101.2883 310° West  Level Estimated
04:24PM 51.6331 101.1444 310° West  Level Estimated
04:25PM 51.7082 101.0001 310° West  Level Estimated
04:26PM 51.7832 100.8553 310° West  Level Estimated
04:27PM 51.8579 100.7099 310° West  Level Estimated
04:28PM 51.9325 100.5641 310° West  Level Estimated
04:29PM 52.0070 100.4179 310° West  Level Estimated
04:30PM 52.0812 100.2711 309° West  Level Estimated
04:31PM 52.1553 100.1238 309° West  Level Estimated
04:32PM 52.2291 99.9761 309° West  Level Estimated
04:33PM 52.3028 99.8278 309° West  Level Estimated
04:34PM 52.3763 99.6791 309° West  Level Estimated
04:35PM 52.4496 99.5299 309° West  Level Estimated
04:36PM 52.5228 99.3801 309° West  Level Estimated
04:37PM 52.5957 99.2299 309° West  Level Estimated
04:38PM 52.6684 99.0792 309° West  Level Estimated
04:39PM 52.7410 98.9279 308° West  Level Estimated
04:40PM 52.8134 98.7762 308° West  Level Estimated
04:41PM 52.8855 98.6240 308° West  Level Estimated
04:42PM 52.9575 98.4712 308° West  Level Estimated
04:43PM 53.0293 98.3180 308° West  Level Estimated
04:44PM 53.1008 98.1642 308° West  Level Estimated
04:45PM 53.1722 98.0100 308° West  Level Estimated
04:46PM 53.2434 97.8552 308° West  Level Estimated
04:47PM 53.3144 97.6999 307° West  Level Estimated
04:48PM 53.3852 97.5441 307° West  Level Estimated
04:49PM 53.4557 97.3877 307° West  Level Estimated
04:50PM 53.5261 97.2309 307° West  Level Estimated
04:51PM 53.5963 97.0735 307° West  Level Estimated
04:52PM 53.6662 96.9156 307° West  Level Estimated
04:53PM 53.7360 96.7571 307° West  Level Estimated
04:54PM 53.8055 96.5982 307° West  Level Estimated
04:55PM 53.8748 96.4387 306° West  Level Estimated
04:56PM 53.9439 96.2787 306° West  Level Estimated
04:57PM 54.0128 96.1182 306° West  Level Estimated
04:58PM 54.0815 95.9571 306° West  Level Estimated
04:59PM 54.1500 95.7955 306° West  Level Estimated
05:00PM 54.2182 95.6333 306° West  Level Estimated
05:01PM 54.2862 95.4707 306° West  Level Estimated
05:02PM 54.3540 95.3075 306° West  Level Estimated
05:03PM 54.4216 95.1437 305° West  Level Estimated
05:04PM 54.4890 94.9794 305° West  Level Estimated
05:05PM 54.5562 94.8146 305° West  Level Estimated
05:06PM 54.6231 94.6492 305° West  Level Estimated
05:07PM 54.6898 94.4833 305° West  Level Estimated
05:08PM 54.7562 94.3168 305° West  Level Estimated
05:09PM 54.8225 94.1498 305° West  Level Estimated
05:10PM 54.8885 93.9823 304° West  Level Estimated
05:11PM 54.9543 93.8142 304° West  Level Estimated
05:12PM 55.0198 93.6455 304° West  Level Estimated
05:13PM 55.0851 93.4763 304° West  Level Estimated
05:14PM 55.1502 93.3065 304° West  Level Estimated
05:15PM 55.2151 93.1362 304° West  Level Estimated
05:16PM 55.2797 92.9653 304° West  Level Estimated
05:17PM 55.3440 92.7939 303° West  Level Estimated
05:18PM 55.4081 92.6219 303° West  Level Estimated
05:19PM 55.4720 92.4494 303° West  Level Estimated
05:20PM 55.5357 92.2763 303° West  Level Estimated
05:20PM 54.3970 89.8050 303° West 445 512 32,000  Level FlightAware
05:21PM 55.5990 92.1026 303° West  Level Estimated
05:21PM 54.4660 89.6320 305° West 449 517 32,000  Level FlightAware
05:22PM 54.5130 89.5130 304° West 450 518 32,000  Level FlightAware
05:23PM 54.5670 89.3750 304° West 451 519 32,000  Level FlightAware
05:24PM 54.6340 89.2040 304° West 453 521 32,000  Level FlightAware
05:24PM 54.6880 89.0670 304° West 453 521 32,000  Level FlightAware
05:25PM 54.7580 88.8850 304° West 456 525 32,000  Level FlightAware
05:26PM 54.8000 88.7750 304° West 456 525 32,000  Level FlightAware
05:27PM 54.8610 88.6140 303° West 456 525 32,000  Level FlightAware
05:28PM 54.9040 88.5020 304° West 457 526 32,000  Level FlightAware
05:28PM 54.9540 88.3680 303° West 457 526 32,000  Level FlightAware
05:29PM 55.0110 88.2200 304° West 459 528 32,000  Level FlightAware
05:30PM 55.0650 88.0760 303° West 459 528 32,000  Level FlightAware
05:31PM 55.1200 87.9290 303° West 459 528 32,000  Level FlightAware
05:31PM 55.1750 87.7790 303° West 461 531 32,000  Level FlightAware
05:32PM 55.2150 87.6710 303° West 461 531 32,000  Level FlightAware
05:33PM 55.2670 87.5270 302° West 461 531 32,000  Level FlightAware
05:33PM 55.3140 87.4000 303° West 461 531 32,000  Level FlightAware
05:34PM 55.3590 87.2740 302° West 462 532 32,000  Level FlightAware
05:35PM 55.4100 87.1330 303° West 461 531 32,000  Level FlightAware
05:36PM 55.4550 87.0050 302° West 460 529 32,000  Level FlightAware
05:36PM 55.5050 86.8670 303° West 458 527 32,000  Level FlightAware
05:37PM 55.5410 86.7640 302° West 459 528 32,000  Level FlightAware
05:38PM 55.5910 86.6230 302° West 459 528 32,000  Level FlightAware
05:38PM 55.6380 86.4880 302° West 461 531 32,000  Level FlightAware
05:39PM 55.6770 86.3750 302° West 461 531 32,000  Level FlightAware
05:40PM 55.7290 86.2260 302° West 459 528 32,000  Level FlightAware
05:40PM 55.7790 86.0820 302° West 459 528 32,000  Level FlightAware
05:41PM 55.8220 85.9550 301° West 460 529 32,000  Level FlightAware
05:42PM 55.8660 85.8240 301° West 460 529 32,000  Level FlightAware
05:42PM 55.9090 85.6970 301° West 458 527 32,000  Level FlightAware
05:43PM 55.9700 85.5170 301° West 456 525 32,000  Level FlightAware
05:44PM 56.0100 85.3910 300° West 457 526 32,000  Level FlightAware
05:45PM 56.0600 85.2350 300° West 459 528 32,000  Level FlightAware
05:45PM 56.0980 85.1160 300° West 459 528 32,000  Level FlightAware
05:46PM 56.1630 84.9100 300° West 457 526 32,000  Level FlightAware
05:47PM 56.2050 84.7750 299° West 455 524 32,000  Level FlightAware
05:48PM 56.2470 84.6400 299° West 456 525 32,000  Level FlightAware
05:49PM 56.2920 84.4950 299° West 459 528 32,000  Level FlightAware
05:49PM 56.3470 84.3190 299° West 461 531 32,000  Level FlightAware
05:50PM 56.3890 84.1820 299° West 460 529 32,000  Level FlightAware
05:51PM 56.4380 84.0180 298° West 460 529 32,000  Level FlightAware
05:52PM 56.4790 83.8830 299° West 462 532 32,000  Level FlightAware
05:52PM 56.5240 83.7350 299° West 460 529 32,000 120 Level FlightAware
05:53PM 56.5690 83.5810 298° West 462 532 32,200 720 Climbing FlightAware
05:54PM 56.6150 83.4260 298° West 458 527 33,100 1,080 Climbing FlightAware
05:54PM 56.6540 83.2940 298° West 456 525 33,800 960 Climbing FlightAware
05:55PM 56.6890 83.1740 298° West 455 524 34,300 780 Climbing FlightAware
05:56PM 56.7290 83.0400 299° West 454 522 34,800 840 Climbing FlightAware
05:56PM 56.7720 82.8910 298° West 452 520 35,500 840 Climbing FlightAware
05:57PM 56.8110 82.7550 298° West 450 518 36,000 300 Climbing FlightAware
05:58PM 56.8540 82.6030 297° West 451 519 36,000  Level FlightAware
05:59PM 56.8920 82.4710 298° West 450 518 36,000  Level FlightAware
05:59PM 56.9350 82.3180 297° West 452 520 36,000  Level FlightAware
06:00PM 56.9770 82.1670 297° West 452 520 36,000  Level FlightAware
06:01PM 57.0160 82.0330 298° West 452 520 36,000  Level FlightAware
06:01PM 57.0640 81.8830 301° West 453 521 36,000  Level FlightAware
06:02PM 57.0990 81.7730 300° West 453 521 36,000  Level FlightAware
06:03PM 57.1430 81.6370 301° West 452 520 36,000  Level FlightAware
06:03PM 57.1900 81.4870 300° West 452 520 36,000  Level FlightAware
06:04PM 57.2320 81.3540 300° West 452 520 36,000  Level FlightAware
06:05PM 57.2790 81.2050 300° West 453 521 36,000  Level FlightAware
06:06PM 57.3210 81.0700 300° West 454 522 36,000  Level FlightAware
06:06PM 57.3600 80.9430 300° West 455 524 36,000  Level FlightAware
06:07PM 57.4100 80.7790 300° West 457 526 36,000  Level FlightAware
06:08PM 57.4490 80.6510 300° West 457 526 36,000  Level FlightAware
06:08PM 57.4970 80.4950 300° West 456 525 36,000  Level FlightAware
06:09PM 57.5410 80.3480 299° West 453 521 36,000  Level FlightAware
06:10PM 57.5870 80.1930 299° West 451 519 36,000  Level FlightAware
06:11PM 57.6530 79.9700 299° West 452 520 36,000  Level FlightAware
06:12PM 57.6790 79.8840 300° West 453 521 36,000  Level FlightAware
06:12PM 57.7110 79.7760 299° West 453 521 36,000  Level FlightAware
06:13PM 57.7710 79.5690 299° West 455 524 36,000  Level FlightAware
06:14PM 57.8120 79.4210 298° West 456 525 36,000  Level FlightAware
06:14PM 57.8560 79.2670 298° West 456 525 36,000  Level FlightAware
06:15PM 57.8760 79.1950 298° West 456 525 36,000  Level FlightAware
06:17PM 57.9920 78.7820 298° West 451 519 36,000  Level FlightAware
06:17PM 58.0220 78.6710 297° West 451 519 36,000  Level FlightAware
06:18PM 58.0510 78.5610 297° West 451 519 36,000  Level FlightAware
06:19PM 58.0830 78.4440 297° West 451 519 36,000  Level FlightAware
06:19PM 58.1210 78.3010 297° West 451 519 36,000  Level FlightAware
06:20PM 58.1500 78.1930 297° West 451 519 36,000  Level FlightAware
06:21PM 58.1900 78.0460 297° West 451 519 36,000  Level FlightAware
06:22PM 58.2460 77.8360 297° West 451 519 36,000  Level FlightAware
06:23PM 58.2850 77.6920 297° West 451 519 36,000  Level FlightAware
06:23PM 58.3150 77.5800 297° West 451 519 36,000  Level FlightAware
06:24PM 58.3540 77.4330 297° West 451 519 36,000  Level FlightAware
06:25PM 58.3830 77.3240 297° West 451 519 36,000  Level FlightAware
06:26PM 58.4220 77.1800 297° West 451 519 36,000  Level FlightAware
06:26PM 58.4510 77.0710 297° West 451 519 36,000  Level FlightAware
06:27PM 58.5930 76.5040 296° West 464 534 36,000  Level FlightAware
06:28PM 58.6410 76.3560 302° West 468 539 36,000  Level FlightAware
06:29PM 58.6760 76.2480 302° West 468 539 36,000  Level FlightAware
06:30PM 58.7570 76.0620 310° West 470 541 36,000  Level FlightAware
06:30PM 58.8230 75.8960 308° West 477 549 36,000  Level FlightAware
06:31PM 58.8830 75.7380 306° West 478 550 36,000  Level FlightAware
06:32PM 58.9280 75.6170 306° West 479 551 36,000  Level FlightAware
06:33PM 58.9920 75.4430 306° West 482 555 36,000  Level FlightAware
06:33PM 59.0440 75.3030 306° West 485 558 36,000  Level FlightAware
06:34PM 59.1090 75.1250 305° West 487 560 36,000  Level FlightAware
06:35PM 59.1600 74.9850 305° West 490 564 36,000  Level FlightAware
06:36PM 59.2160 74.8300 305° West 490 564 36,000  Level FlightAware
06:36PM 59.2890 74.6250 305° West 489 563 36,000  Level FlightAware
06:37PM 59.3170 74.5350 301° West 486 559 36,000  Level FlightAware
06:38PM 59.3520 74.4190 301° West 486 559 36,000  Level FlightAware
06:39PM 59.4000 74.2650 302° West 486 559 36,000  Level FlightAware
06:39PM 59.4360 74.1460 301° West 486 559 36,000  Level FlightAware
06:40PM 59.4830 73.9910 301° West 486 559 36,000  Level FlightAware
06:41PM 59.5430 73.5900 287° West 36,000  Level FlightAware
06:42PM 59.5830 73.4110 294° West 483 556 36,000  Level FlightAware
06:43PM 59.6620 73.0520 294° West 484 557 36,000  Level FlightAware
06:44PM 59.7100 72.8330 294° West 486 559 36,000  Level FlightAware
06:45PM 59.7430 72.6780 293° West 486 559 36,000  Level FlightAware
06:45PM 59.7830 72.4920 293° West 485 558 36,000  Level FlightAware
06:46PM 59.8150 72.3420 293° West 484 557 36,000  Level FlightAware
06:47PM 59.8510 72.1700 293° West 481 554 36,000  Level FlightAware
06:47PM 59.8880 71.9940 293° West 480 552 36,000  Level FlightAware
06:48PM 59.9210 71.8330 292° West 480 552 36,000  Level FlightAware
06:49PM 59.9570 71.6580 292° West 477 549 36,000  Level FlightAware
06:49PM 59.9930 71.4810 292° West 472 543 36,000  Level FlightAware
06:50PM 60.0220 71.3390 292° West 471 542 36,000  Level FlightAware
06:51PM 60.0540 71.1770 292° West 472 543 36,000  Level FlightAware
06:51PM 60.0840 71.0300 292° West 472 543 36,000  Level FlightAware
06:52PM 60.1080 70.9010 291° West 472 543 36,000  Level FlightAware
06:53PM 60.1580 70.6510 292° West 473 544 36,000  Level FlightAware
06:54PM 60.1850 70.5190 292° West 473 544 36,000  Level FlightAware
06:54PM 60.2110 70.3910 292° West 473 544 36,000  Level FlightAware
06:55PM 60.2560 70.1380 290° West 36,000  Level FlightAware
06:56PM 60.2880 69.9680 291° West 478 550 36,000  Level FlightAware
06:56PM 60.3190 69.8010 291° West 479 551 36,000  Level FlightAware
06:57PM 60.3480 69.6480 291° West 480 552 36,000  Level FlightAware
06:58PM 60.3880 69.4310 291° West 480 552 36,000  Level FlightAware
06:59PM 60.4160 69.2740 290° West 480 552 36,000  Level FlightAware
06:59PM 60.4390 69.1450 290° West 480 552 36,000  Level FlightAware
07:02PM 60.5039 68.5913 284° West  Level Estimated
07:03PM 60.5302 68.3599 283° West  Level Estimated
07:04PM 60.5562 68.1282 283° West  Level Estimated
07:04PM 60.6530 67.9270 283° West 484 557 36,000  Level FlightAware
07:05PM 60.6970 67.6640 289° West 484 557 36,000  Level FlightAware
07:06PM 60.7190 67.5310 289° West 484 557 36,000  Level FlightAware
07:06PM 60.7490 67.3550 289° West 484 557 36,000  Level FlightAware
07:07PM 60.7720 67.2180 289° West 484 557 36,000  Level FlightAware
07:08PM 60.8180 66.9170 288° West 484 557 36,000  Level FlightAware
07:08PM 60.8430 66.7580 288° West 485 558 36,000  Level FlightAware
07:09PM 60.8720 66.5740 288° West 487 560 36,000  Level FlightAware
07:10PM 60.8990 66.3990 288° West 488 562 36,000  Level FlightAware
07:10PM 60.9310 66.1950 288° West 488 562 36,000  Level FlightAware
07:11PM 60.9590 66.0090 287° West 487 560 36,000  Level FlightAware
07:12PM 60.9800 65.8660 287° West 487 560 36,000  Level FlightAware
07:12PM 61.0000 65.7300 287° West 487 560 36,000  Level FlightAware
07:13PM 61.0200 65.5940 287° West 487 560 36,000  Level FlightAware
07:14PM 61.0470 65.4120 287° West 487 560 36,000  Level FlightAware
07:14PM 61.0670 65.2760 287° West 487 560 36,000  Level FlightAware
07:15PM 61.0880 65.1360 287° West 487 560 36,000  Level FlightAware
07:16PM 61.1150 64.9540 287° West 487 560 36,000  Level FlightAware
07:16PM 61.1350 64.8170 287° West 487 560 36,000  Level FlightAware
07:17PM 61.1550 64.6810 287° West 487 560 36,000  Level FlightAware
07:18PM 61.1820 64.4980 287° West 487 560 36,000  Level FlightAware
07:18PM 61.2020 64.3610 287° West 487 560 36,000  Level FlightAware
07:19PM 61.2360 64.1330 287° West 487 560 36,000  Level FlightAware
07:20PM 61.2570 63.9850 286° West 487 560 36,000  Level FlightAware
07:23PM 61.2990 63.3956 279° West  Level Estimated
07:24PM 61.3154 63.1545 278° West  Level Estimated
07:25PM 61.3313 62.9133 278° West  Level Estimated
07:26PM 61.3469 62.6717 278° West  Level Estimated
07:27PM 61.3620 62.4300 278° West  Level Estimated
07:28PM 61.3767 62.1880 277° West  Level Estimated
07:29PM 61.3909 61.9458 277° West  Level Estimated
07:30PM 61.4048 61.7034 277° West  Level Estimated
07:31PM 61.4181 61.4607 277° West  Level Estimated
07:32PM 61.4311 61.2179 276° West  Level Estimated
07:33PM 61.4436 60.9748 276° West  Level Estimated
07:34PM 61.4557 60.7316 276° West  Level Estimated
07:35PM 61.4674 60.4882 276° West  Level Estimated
07:36PM 61.4786 60.2445 276° West  Level Estimated
07:37PM 61.4894 60.0008 275° West  Level Estimated
07:37PM 61.6030 59.0980 275° West 469 540 36,000  Level FlightAware
07:38PM 61.6240 58.6790 276° West 466 536 36,000  Level FlightAware
07:39PM 61.6350 58.4430 276° West 466 536 36,000  Level FlightAware
07:40PM 61.6450 58.2390 276° West 479 551 36,000  Level FlightAware
07:41PM 61.6550 58.0260 276° West 472 543 36,000  Level FlightAware
07:41PM 61.6630 57.8340 275° West 472 543 36,000  Level FlightAware
07:42PM 61.6710 57.6520 275° West 470 541 36,000  Level FlightAware
07:43PM 61.6800 57.4350 275° West 472 543 36,000  Level FlightAware
07:43PM 61.6880 57.2330 275° West 474 545 36,000  Level FlightAware
07:44PM 61.6950 57.0670 275° West 474 545 36,000  Level FlightAware
07:45PM 61.7020 56.8690 274° West 473 544 36,000  Level FlightAware
07:45PM 61.7040 56.6910 271° West 474 545 36,000 180 Level FlightAware
07:46PM 61.7060 56.5150 271° West 472 543 36,300 660 Climbing FlightAware
07:47PM 61.7080 56.2880 271° West 470 541 37,000 600 Climbing FlightAware
07:48PM 61.7090 56.1270 271° West 472 543 37,200 480 Climbing FlightAware
07:48PM 61.7100 55.8880 271° West 473 544 37,700 600 Climbing FlightAware
07:49PM 61.7110 55.7270 271° West 473 544 38,000 180 Climbing FlightAware
07:50PM 61.7120 55.5540 271° West 475 547 38,000  Level FlightAware
07:50PM 61.7130 55.3420 271° West 468 539 38,000  Level FlightAware
07:51PM 61.7130 55.1530 270° West 465 535 38,000  Level FlightAware
07:52PM 61.7130 54.9720 270° West 466 536 38,000  Level FlightAware
07:52PM 61.7130 54.8200 270° West 469 540 38,000  Level FlightAware
07:53PM 61.7120 54.6280 269° West 471 542 38,000  Level FlightAware
07:54PM 61.7110 54.4650 269° West 472 543 38,000  Level FlightAware
07:54PM 61.7100 54.2450 270° West 474 545 38,000  Level FlightAware
07:55PM 61.7090 54.0650 269° West 474 545 38,000  Level FlightAware
07:56PM 61.7070 53.8420 269° West 474 545 38,000  Level FlightAware
07:56PM 61.7060 53.6870 269° West 473 544 38,000  Level FlightAware
07:57PM 61.7030 53.4690 268° West 472 543 38,000  Level FlightAware
07:58PM 61.7010 53.2710 269° West 471 542 38,000  Level FlightAware
07:59PM 61.6980 53.0910 268° West 471 542 38,000  Level FlightAware
07:59PM 61.6950 52.9000 268° West 467 537 38,000  Level FlightAware
08:00PM 61.6920 52.6990 268° West 466 536 38,000  Level FlightAware
08:01PM 61.6890 52.5240 268° West 464 534 38,000  Level FlightAware
08:01PM 61.6860 52.3640 268° West 463 533 38,000  Level FlightAware
08:02PM 61.6820 52.1640 268° West 463 533 38,000  Level FlightAware
08:03PM 61.6780 51.9980 267° West 462 532 38,000  Level FlightAware
08:03PM 61.6730 51.7730 267° West 462 532 38,000  Level FlightAware
08:04PM 61.6680 51.5980 267° West 460 529 38,000  Level FlightAware
08:05PM 61.6630 51.4010 267° West 458 527 38,000  Level FlightAware
08:05PM 61.6590 51.2380 267° West 457 526 38,000  Level FlightAware
08:06PM 61.6530 51.0500 266° West 455 524 38,000  Level FlightAware
08:07PM 61.6460 50.8450 266° West 457 526 38,000  Level FlightAware
08:08PM 61.6340 50.6880 261° West 459 528 38,000  Level FlightAware
08:08PM 61.6190 50.5100 260° West 460 529 38,000  Level FlightAware
08:09PM 61.6000 50.3010 259° West 460 529 38,000  Level FlightAware
08:10PM 61.5820 50.0870 260° West 460 529 38,000  Level FlightAware
08:11PM 61.5610 49.8500 260° West 460 529 38,000  Level FlightAware
08:11PM 61.5460 49.6860 259° West 460 529 38,000  Level FlightAware
08:12PM 61.5300 49.5070 259° West 460 529 38,000  Level FlightAware
08:13PM 61.5170 49.3690 259° West 460 529 38,000  Level FlightAware
08:14PM 61.5000 49.1910 259° West 460 529 38,000  Level FlightAware
08:14PM 61.4880 49.0570 259° West 460 529 38,000  Level FlightAware
08:15PM 61.4710 48.8780 259° West 460 529 38,000  Level FlightAware
08:16PM 61.4580 48.7370 259° West 460 529 38,000  Level FlightAware
08:16PM 61.4460 48.6030 259° West 460 529 38,000  Level FlightAware
08:17PM 61.4330 48.4700 259° West 460 529 38,000  Level FlightAware
08:18PM 61.4170 48.2910 259° West 460 529 38,000  Level FlightAware
08:18PM 61.4040 48.1580 259° West 460 529 38,000  Level FlightAware
08:19PM 61.3920 48.0240 259° West 460 529 38,000  Level FlightAware
08:20PM 61.3750 47.8430 259° West 460 529 38,000  Level FlightAware
08:20PM 61.3620 47.7090 259° West 460 529 38,000  Level FlightAware
08:23PM 61.3369 47.1794 265° West  Level Estimated
08:24PM 61.3247 46.9371 264° West  Level Estimated
08:25PM 61.3120 46.6950 264° West  Level Estimated
08:26PM 61.2990 46.4531 264° West  Level Estimated
08:27PM 61.2855 46.2114 263° West  Level Estimated
08:28PM 61.2716 45.9699 263° West  Level Estimated
08:29PM 61.2572 45.7286 263° West  Level Estimated
08:30PM 61.2424 45.4876 263° West  Level Estimated
08:31PM 61.2272 45.2468 263° West  Level Estimated
08:32PM 61.2116 45.0062 262° West  Level Estimated
08:33PM 61.1955 44.7659 262° West  Level Estimated
08:34PM 61.1791 44.5258 262° West  Level Estimated
08:35PM 61.1621 44.2859 262° West  Level Estimated
08:36PM 61.1448 44.0464 262° West  Level Estimated
08:37PM 61.1271 43.8070 261° West  Level Estimated
08:38PM 61.1089 43.5680 261° West  Level Estimated
08:39PM 61.0903 43.3293 261° West  Level Estimated
08:40PM 61.0713 43.0908 261° West  Level Estimated
08:40PM 60.7730 42.6200 261° West 442 509 38,000  Level FlightAware
08:41PM 60.7460 42.4170 255° West 443 510 38,000  Level FlightAware
08:42PM 60.7210 42.2210 255° West 441 507 38,000  Level FlightAware
08:43PM 60.7000 42.0650 255° West 438 504 38,000  Level FlightAware
08:43PM 60.6770 41.8940 255° West 435 501 38,000  Level FlightAware
08:44PM 60.6540 41.7270 254° West 433 498 38,000  Level FlightAware
08:45PM 60.6330 41.5730 255° West 435 501 38,000  Level FlightAware
08:45PM 60.6070 41.3840 254° West 436 502 38,000  Level FlightAware
08:46PM 60.5880 41.2410 255° West 435 501 38,000  Level FlightAware
08:47PM 60.5760 41.0710 262° West 433 498 38,000  Level FlightAware
08:47PM 60.5680 40.9160 264° West 434 499 38,000  Level FlightAware
08:49PM 60.5520 40.6440 263° West 435 501 38,000  Level FlightAware
08:49PM 60.5450 40.5260 263° West 435 501 38,000  Level FlightAware
08:50PM 60.5350 40.3600 263° West 435 501 38,000  Level FlightAware
08:51PM 60.5270 40.2360 263° West 435 501 38,000  Level FlightAware
08:51PM 60.5170 40.0710 263° West 435 501 38,000  Level FlightAware
08:52PM 60.4960 39.7140 263° West 436 502 38,000  Level FlightAware
08:53PM 60.4850 39.5490 262° West 436 502 38,000  Level FlightAware
08:54PM 60.4760 39.4250 262° West 436 502 38,000  Level FlightAware
08:55PM 60.4650 39.2590 262° West 436 502 38,000  Level FlightAware
08:55PM 60.4460 38.9600 263° West 438 504 38,000  Level FlightAware
08:56PM 60.4360 38.8050 263° West 437 503 38,000  Level FlightAware
08:57PM 60.4240 38.6410 262° West 437 503 38,000  Level FlightAware
08:57PM 60.4120 38.4820 261° West 438 504 38,000  Level FlightAware
08:58PM 60.4000 38.3230 261° West 438 504 38,000  Level FlightAware
08:59PM 60.3880 38.1540 262° West 440 506 38,000  Level FlightAware
09:00PM 60.3710 37.9370 261° West 442 509 38,000  Level FlightAware
09:00PM 60.3580 37.7640 261° West 442 509 38,000  Level FlightAware
09:01PM 60.3430 37.5800 261° West 442 509 38,000  Level FlightAware
09:02PM 60.3310 37.4260 261° West 443 510 38,000  Level FlightAware
09:02PM 60.3170 37.2680 260° West 442 509 38,000  Level FlightAware
09:03PM 60.3060 37.1440 260° West 442 509 38,000  Level FlightAware
09:04PM 60.2880 36.9330 260° West 442 509 38,000  Level FlightAware
09:05PM 60.2770 36.8050 260° West 442 509 38,000  Level FlightAware
09:06PM 60.2620 36.6400 260° West 442 509 38,000  Level FlightAware
09:06PM 60.2510 36.5150 260° West 442 509 38,000  Level FlightAware
09:07PM 60.2370 36.3500 260° West 442 509 38,000  Level FlightAware
09:08PM 60.2260 36.2260 260° West 442 509 38,000  Level FlightAware
09:09PM 60.2080 36.0190 260° West 442 509 38,000  Level FlightAware
09:09PM 60.1970 35.8950 260° West 442 509 38,000  Level FlightAware
09:10PM 60.1860 35.7710 260° West 442 509 38,000  Level FlightAware
09:11PM 60.1610 35.4850 260° West 442 509 38,000  Level FlightAware
09:12PM 60.1500 35.3620 260° West 442 509 38,000  Level FlightAware
09:14PM 60.0906 34.9528 254° West  Level Estimated
09:15PM 60.0574 34.7282 254° West  Level Estimated
09:16PM 60.0237 34.5041 253° West  Level Estimated
09:17PM 59.9897 34.2804 253° West  Level Estimated
09:18PM 59.9553 34.0572 253° West  Level Estimated
09:19PM 59.9206 33.8344 253° West  Level Estimated
09:20PM 59.8855 33.6121 253° West  Level Estimated
09:21PM 59.8500 33.3903 252° West  Level Estimated
09:22PM 59.8141 33.1689 252° West  Level Estimated
09:22PM 59.8470 32.6010 252° West 448 516 38,000  Level FlightAware
09:22PM 59.8280 32.4380 257° West 447 514 38,000  Level FlightAware
09:23PM 59.8080 32.2220 260° West 448 516 38,000  Level FlightAware
09:24PM 59.7970 32.0580 262° West 448 516 38,000  Level FlightAware
09:24PM 59.7850 31.8930 262° West 450 518 38,000  Level FlightAware
09:25PM 59.7750 31.7480 262° West 450 518 38,000  Level FlightAware
09:26PM 59.7610 31.5660 261° West 448 516 38,000  Level FlightAware
09:26PM 59.7490 31.4060 262° West 447 514 38,000  Level FlightAware
09:27PM 59.7370 31.2440 262° West 446 513 38,000  Level FlightAware
09:28PM 59.7240 31.0820 261° West 445 512 38,000  Level FlightAware
09:29PM 59.7100 30.9020 261° West 444 511 38,000  Level FlightAware
09:29PM 59.6970 30.7420 261° West 444 511 38,000  Level FlightAware
09:30PM 59.6840 30.5830 261° West 445 512 38,000  Level FlightAware
09:31PM 59.6710 30.4210 261° West 446 513 38,000  Level FlightAware
09:31PM 59.6560 30.2440 261° West 445 512 38,000  Level FlightAware
09:32PM 59.6420 30.0820 260° West 445 512 38,000  Level FlightAware
09:33PM 59.6300 29.9430 260° West 446 513 38,000  Level FlightAware
09:33PM 59.6160 29.7800 260° West 446 513 38,000  Level FlightAware
09:34PM 59.5950 29.5440 260° West 447 514 38,000  Level FlightAware
09:35PM 59.5870 29.4500 260° West 448 516 38,000  Level FlightAware
09:36PM 59.5650 29.2090 260° West 451 519 38,000  Level FlightAware
09:36PM 59.5500 29.0510 259° West 451 519 38,000  Level FlightAware
09:37PM 59.5350 28.8980 259° West 449 517 38,000  Level FlightAware
09:38PM 59.5170 28.7080 260° West 448 516 38,000  Level FlightAware
09:38PM 59.5000 28.5270 260° West 449 517 38,000  Level FlightAware
09:39PM 59.4870 28.4000 259° West 449 517 38,000  Level FlightAware
09:40PM 59.4700 28.2290 259° West 447 514 38,000  Level FlightAware
09:40PM 59.4500 28.0680 256° West 445 512 38,000  Level FlightAware
09:41PM 59.4200 27.9120 249° West 445 512 38,000  Level FlightAware
09:42PM 59.3880 27.7440 250° West 445 512 38,000  Level FlightAware
09:42PM 59.3600 27.5990 249° West 445 512 38,000  Level FlightAware
09:43PM 59.3260 27.4290 249° West 446 513 38,000  Level FlightAware
09:44PM 59.2990 27.2930 249° West 444 511 38,000  Level FlightAware
09:45PM 59.2660 27.1240 249° West 443 510 38,000  Level FlightAware
09:45PM 59.2320 26.9580 248° West 444 511 38,000  Level FlightAware
09:46PM 59.2050 26.8230 249° West 444 511 38,000  Level FlightAware
09:47PM 59.1740 26.6750 248° West 446 513 38,000  Level FlightAware
09:47PM 59.1420 26.5170 249° West 447 514 38,000  Level FlightAware
09:48PM 59.1130 26.3790 248° West 449 517 38,000  Level FlightAware
09:49PM 59.0820 26.2310 248° West 449 517 38,000  Level FlightAware
09:49PM 59.0480 26.0700 248° West 450 518 38,000  Level FlightAware
09:50PM 59.0180 25.9270 248° West 451 519 38,000  Level FlightAware
09:50PM 58.9900 25.7940 248° West 452 520 38,000  Level FlightAware
09:51PM 58.9540 25.6280 247° West 452 520 38,000  Level FlightAware
09:52PM 58.9200 25.4710 247° West 452 520 38,000  Level FlightAware
09:53PM 58.8880 25.3250 247° West 449 517 38,000  Level FlightAware
09:53PM 58.8520 25.1640 247° West 447 514 38,000  Level FlightAware
09:54PM 58.8170 25.0070 247° West 445 512 38,000  Level FlightAware
09:55PM 58.7830 24.8520 247° West 444 511 38,000  Level FlightAware
09:55PM 58.7560 24.7350 246° West 445 512 38,000  Level FlightAware
09:56PM 58.7250 24.5970 247° West 445 512 38,000  Level FlightAware
09:57PM 58.6850 24.4220 246° West 447 514 38,000  Level FlightAware
09:57PM 58.6590 24.3060 247° West 448 516 38,000  Level FlightAware
09:58PM 58.6210 24.1440 246° West 449 517 38,000  Level FlightAware
09:59PM 58.5880 24.0030 246° West 451 519 38,000  Level FlightAware
09:59PM 58.5500 23.8410 246° West 453 521 38,000  Level FlightAware
10:01PM 58.5020 23.6370 246° West 452 520 38,000  Level FlightAware
10:01PM 58.4490 23.4130 246° West 453 521 38,000  Level FlightAware
10:02PM 58.4120 23.2620 245° Southwest 452 520 38,000  Level FlightAware
10:03PM 58.3730 23.1010 245° Southwest 451 519 38,000  Level FlightAware
10:03PM 58.3380 22.9580 245° Southwest 452 520 38,000  Level FlightAware
10:04PM 58.2970 22.7900 245° Southwest 454 522 38,000  Level FlightAware
10:05PM 58.2620 22.6470 245° Southwest 455 524 38,000  Level FlightAware
10:06PM 58.2230 22.4920 245° Southwest 455 524 38,000  Level FlightAware
10:06PM 58.1890 22.3450 246° West 455 524 38,000  Level FlightAware
10:07PM 58.1660 22.2440 247° West 456 525 38,000  Level FlightAware
10:07PM 58.1320 22.0950 247° West 456 525 38,000  Level FlightAware
10:08PM 58.0930 21.9310 246° West 458 527 38,000  Level FlightAware
10:09PM 58.0590 21.7880 246° West 457 526 38,000  Level FlightAware
10:10PM 58.0260 21.6460 246° West 457 526 38,000  Level FlightAware
10:10PM 57.9890 21.4890 246° West 457 526 38,000  Level FlightAware
10:11PM 57.9570 21.3580 245° Southwest 459 528 38,000  Level FlightAware
10:12PM 57.9180 21.1980 245° Southwest 459 528 38,000  Level FlightAware
10:12PM 57.8840 21.0580 245° Southwest 457 526 38,000  Level FlightAware
10:13PM 57.8390 20.8750 245° Southwest 454 522 38,000  Level FlightAware
10:14PM 57.7970 20.7040 245° Southwest 453 521 38,000  Level FlightAware
10:15PM 57.7610 20.5580 245° Southwest 454 522 38,000  Level FlightAware
10:15PM 57.7250 20.4170 244° Southwest 454 522 38,000  Level FlightAware
10:16PM 57.6860 20.2610 245° Southwest 454 522 38,000  Level FlightAware
10:17PM 57.6480 20.1170 244° Southwest 454 522 38,000  Level FlightAware
10:17PM 57.6070 19.9850 240° Southwest 454 522 38,000  Level FlightAware
10:18PM 57.5590 19.8290 240° Southwest 453 521 38,000  Level FlightAware
10:19PM 57.5210 19.7070 240° Southwest 454 522 38,000  Level FlightAware
10:19PM 57.4710 19.5440 240° Southwest 456 525 38,000  Level FlightAware
10:20PM 57.4340 19.4230 240° Southwest 456 525 38,000  Level FlightAware
10:21PM 57.3950 19.2970 240° Southwest 458 527 38,000  Level FlightAware
10:21PM 57.3440 19.1350 240° Southwest 460 529 38,000  Level FlightAware
10:22PM 57.3050 19.0110 240° Southwest 460 529 38,000  Level FlightAware
10:23PM 57.2560 18.8570 240° Southwest 459 528 38,000  Level FlightAware
10:24PM 57.2100 18.7140 239° Southwest 458 527 38,000  Level FlightAware
10:24PM 57.1630 18.5650 240° Southwest 457 526 38,000  Level FlightAware
10:25PM 57.1200 18.4320 239° Southwest 456 525 38,000  Level FlightAware
10:26PM 57.0720 18.2850 239° Southwest 455 524 38,000  Level FlightAware
10:26PM 57.0260 18.1460 239° Southwest 455 524 38,000  Level FlightAware
10:27PM 56.9800 18.0040 239° Southwest 454 522 38,000  Level FlightAware
10:28PM 56.9370 17.8740 239° Southwest 453 521 38,000  Level FlightAware
10:29PM 56.8900 17.7330 239° Southwest 456 525 38,000  Level FlightAware
10:29PM 56.8450 17.5980 239° Southwest 458 527 38,000  Level FlightAware
10:30PM 56.8140 17.5050 239° Southwest 458 527 38,000  Level FlightAware
10:31PM 56.7430 17.2950 238° Southwest 460 529 38,000  Level FlightAware
10:31PM 56.6940 17.1520 238° Southwest 461 531 38,000  Level FlightAware
10:32PM 56.6530 17.0330 238° Southwest 462 532 38,000  Level FlightAware
10:33PM 56.6080 16.9020 238° Southwest 462 532 38,000  Level FlightAware
10:33PM 56.5760 16.8080 238° Southwest 461 531 38,000  Level FlightAware
10:34PM 56.5300 16.6770 238° Southwest 459 528 38,000  Level FlightAware
10:35PM 56.4760 16.5240 237° Southwest 458 527 38,000  Level FlightAware
10:35PM 56.4320 16.3970 238° Southwest 454 522 38,000  Level FlightAware
10:36PM 56.3860 16.2660 238° Southwest 453 521 38,000  Level FlightAware
10:37PM 56.3380 16.1310 237° Southwest 454 522 38,000  Level FlightAware
10:37PM 56.2930 16.0070 237° Southwest 455 524 38,000  Level FlightAware
10:38PM 56.2430 15.8670 237° Southwest 457 526 38,000  Level FlightAware
10:39PM 56.1920 15.7260 237° Southwest 460 529 38,000  Level FlightAware
10:39PM 56.1450 15.5970 237° Southwest 462 532 38,000  Level FlightAware
10:40PM 56.0940 15.4570 237° Southwest 465 535 38,000  Level FlightAware
10:41PM 56.0490 15.3350 237° Southwest 466 536 38,000  Level FlightAware
10:41PM 56.0170 15.2460 237° Southwest 467 537 38,000  Level FlightAware
10:42PM 55.9610 15.0970 236° Southwest 466 536 38,000  Level FlightAware
10:43PM 55.9120 14.9650 237° Southwest 465 535 38,000  Level FlightAware
10:43PM 55.8630 14.8350 236° Southwest 465 535 38,000  Level FlightAware
10:44PM 55.8130 14.7010 236° Southwest 467 537 38,000  Level FlightAware
10:45PM 55.7580 14.5580 236° Southwest 467 537 38,000  Level FlightAware
10:46PM 55.7110 14.4330 236° Southwest 465 535 38,000  Level FlightAware
10:46PM 55.6630 14.3080 236° Southwest 465 535 38,000  Level FlightAware
10:47PM 55.6140 14.1820 235° Southwest 464 534 38,000  Level FlightAware
10:48PM 55.5600 14.0410 236° Southwest 462 532 38,000  Level FlightAware
10:48PM 55.5170 13.9320 235° Southwest 462 532 38,000  Level FlightAware
10:49PM 55.4700 13.8100 236° Southwest 458 527 38,000  Level FlightAware
10:50PM 55.4200 13.6830 235° Southwest 459 528 38,000  Level FlightAware
10:50PM 55.3650 13.5430 235° Southwest 461 531 38,000  Level FlightAware
10:51PM 55.3170 13.4220 235° Southwest 461 531 38,000  Level FlightAware
10:52PM 55.2590 13.2820 234° Southwest 472 543 38,000  Level FlightAware
10:52PM 55.1970 13.1750 225° Southwest 474 545 38,000  Level FlightAware
10:53PM 55.1400 13.0780 224° Southwest 476 548 38,000  Level FlightAware
10:54PM 55.0700 12.9590 224° Southwest 479 551 38,000  Level FlightAware
10:54PM 55.0040 12.8480 224° Southwest 478 550 38,000  Level FlightAware
10:55PM 54.9490 12.7550 224° Southwest 474 545 38,000  Level FlightAware
10:56PM 54.8850 12.6470 224° Southwest 473 544 38,000  Level FlightAware
10:56PM 54.8150 12.5290 224° Southwest 472 543 38,000  Level FlightAware
10:57PM 54.7520 12.4230 224° Southwest 472 543 38,000  Level FlightAware
10:58PM 54.6810 12.3060 224° Southwest 471 542 38,000  Level FlightAware
10:58PM 54.6170 12.2000 224° Southwest 470 541 38,000  Level FlightAware
10:59PM 54.5440 12.0800 224° Southwest 468 539 38,000  Level FlightAware
11:00PM 54.4900 11.9910 224° Southwest 467 537 38,000  Level FlightAware
11:00PM 54.4280 11.8900 223° Southwest 466 536 38,000  Level FlightAware
11:01PM 54.3640 11.7870 223° Southwest 466 536 38,000  Level FlightAware
11:02PM 54.3020 11.6860 224° Southwest 466 536 38,000  Level FlightAware
11:03PM 54.2360 11.5810 223° Southwest 467 537 38,000  Level FlightAware
11:03PM 54.1740 11.4810 223° Southwest 470 541 38,000  Level FlightAware
11:04PM 54.1080 11.3760 223° Southwest 472 543 38,000  Level FlightAware
11:04PM 54.0520 11.2870 223° Southwest 480 552 38,000  Level FlightAware
11:05PM 53.9780 11.1700 223° Southwest 484 557 38,000  Level FlightAware
11:06PM 53.9140 11.0690 223° Southwest 487 560 38,000  Level FlightAware
11:06PM 53.8530 10.9740 223° Southwest 483 556 38,000  Level FlightAware
11:07PM 53.7710 10.8470 222° Southwest 483 556 38,000  Level FlightAware
11:08PM 53.7040 10.7430 223° Southwest 482 555 38,000  Level FlightAware
11:09PM 53.6360 10.6380 222° Southwest 484 557 38,000  Level FlightAware
11:09PM 53.5720 10.5410 222° Southwest 481 554 38,000  Level FlightAware
11:10PM 53.5290 10.4760 222° Southwest 478 550 38,000  Level FlightAware
11:10PM 53.4560 10.3670 222° Southwest 475 547 38,000  Level FlightAware
11:11PM 53.3980 10.2800 222° Southwest 475 547 38,000  Level FlightAware
11:12PM 53.3240 10.1690 222° Southwest 478 550 38,000  Level FlightAware
11:12PM 53.2610 10.0760 221° Southwest 474 545 38,000  Level FlightAware
11:13PM 53.1850 9.9630 222° Southwest 475 547 38,000  Level FlightAware
11:14PM 53.1140 9.8600 221° Southwest 482 555 38,000  Level FlightAware
11:14PM 53.0580 9.7780 221° Southwest 483 556 38,000  Level FlightAware
11:15PM 52.9830 9.6680 221° Southwest 478 550 38,000  Level FlightAware
11:16PM 52.9160 9.5720 221° Southwest 478 550 38,000  Level FlightAware
11:16PM 52.8570 9.4860 221° Southwest 477 549 38,000  Level FlightAware
11:17PM 52.7890 9.3890 221° Southwest 476 548 38,000  Level FlightAware
11:18PM 52.7220 9.2930 221° Southwest 477 549 38,000  Level FlightAware
11:18PM 52.6550 9.1960 221° Southwest 485 558 38,000  Level FlightAware
11:19PM 52.5860 9.0990 221° Southwest 477 549 38,000  Level FlightAware
11:20PM 52.5190 9.0050 221° Southwest 476 548 38,000  Level FlightAware
11:21PM 52.4350 8.8860 221° Southwest 474 545 38,000  Level FlightAware
11:21PM 52.3680 8.7930 220° Southwest 472 543 38,000  Level FlightAware
11:22PM 52.3000 8.6980 221° Southwest 473 544 38,000  Level FlightAware
11:23PM 52.2330 8.6040 221° Southwest 474 545 38,000  Level FlightAware
11:23PM 52.1650 8.5110 220° Southwest 483 556 38,000  Level FlightAware
11:24PM 52.0970 8.4170 220° Southwest 484 557 38,000  Level FlightAware
11:25PM 52.0280 8.3220 220° Southwest 486 559 38,000  Level FlightAware
11:25PM 51.9520 8.2180 220° Southwest 484 557 38,000  Level FlightAware
11:26PM 51.8820 8.1230 220° Southwest 484 557 38,000  Level FlightAware
11:27PM 51.8050 8.0190 220° Southwest 483 556 38,000  Level FlightAware
11:27PM 51.7360 7.9260 220° Southwest 483 556 38,000  Level FlightAware
11:28PM 51.6590 7.8230 220° Southwest 485 558 38,000  Level FlightAware
11:29PM 51.5900 7.7300 220° Southwest 481 554 38,000  Level FlightAware
11:30PM 51.5180 7.6350 219° Southwest 487 560 38,000  Level FlightAware
11:30PM 51.4440 7.5360 220° Southwest 486 559 38,000  Level FlightAware
11:31PM 51.3670 7.4360 219° Southwest 485 558 38,000  Level FlightAware
11:32PM 51.2980 7.3450 220° Southwest 485 558 38,000  Level FlightAware
11:32PM 51.2400 7.2680 220° Southwest 486 559 38,000  Level FlightAware
11:33PM 51.1680 7.1750 219° Southwest 486 559 38,000  Level FlightAware
11:34PM 51.0900 7.0740 219° Southwest 487 560 38,000  Level FlightAware
11:34PM 51.0210 6.9840 219° Southwest 488 562 38,000  Level FlightAware
11:35PM 50.9430 6.8830 219° Southwest 486 559 38,000  Level FlightAware
11:36PM 50.8760 6.7850 223° Southwest 475 547 38,000  Level FlightAware
11:36PM 50.8260 6.6590 238° Southwest 470 541 38,000  Level FlightAware
11:37PM 50.7870 6.5680 236° Southwest 472 543 38,000  Level FlightAware
11:38PM 50.7310 6.4390 236° Southwest 474 545 38,000  Level FlightAware
11:38PM 50.6830 6.3270 236° Southwest 476 548 38,000  Level FlightAware
11:39PM 50.6370 6.2230 235° Southwest 476 548 38,000  Level FlightAware
11:40PM 50.5890 6.1120 236° Southwest 476 548 38,000  Level FlightAware
11:40PM 50.5330 5.9830 236° Southwest 476 548 38,000  Level FlightAware
11:41PM 50.4820 5.8690 235° Southwest 475 547 38,000  Level FlightAware
11:42PM 50.4300 5.7510 235° Southwest 476 548 38,000  Level FlightAware
11:42PM 50.3800 5.6380 235° Southwest 475 547 38,000 -180 Level FlightAware
11:43PM 50.3220 5.5090 235° Southwest 476 548 37,800 -600 Descending FlightAware
11:44PM 50.2750 5.4040 235° Southwest 478 550 37,200 -1,020 Descending FlightAware
11:45PM 50.2240 5.2910 235° Southwest 479 551 36,500 -1,020 Descending FlightAware
11:45PM 50.1720 5.1760 235° Southwest 478 550 35,900 -1,020 Descending FlightAware
11:46PM 50.1210 5.0630 235° Southwest 478 550 35,200 -1,080 Descending FlightAware
11:46PM 50.0760 4.9650 234° Southwest 480 552 34,600 -1,020 Descending FlightAware
11:47PM 50.0180 4.8390 234° Southwest 478 550 33,900 -840 Descending FlightAware
11:47PM 49.9970 4.8008 234° Southwest 1 1 34,000 -2,280 Climbing FlightAware UK
11:48PM 49.9733 4.7463 234° Southwest 1 1 32,700 -2,700 Descending FlightAware UK
11:48PM 49.9670 4.7280 234° Southwest 485 558 32,300 -2,580 Descending FlightAware
11:49PM 49.9090 4.6040 234° Southwest 488 562 30,500 -2,520 Descending FlightAware
11:49PM 49.8570 4.4936 234° Southwest 1 1 28,900 -2,460 Descending FlightAware UK
11:49PM 49.8560 4.4880 234° Southwest 479 551 28,800 -2,160 Descending FlightAware
11:50PM 49.8060 4.3830 234° Southwest 468 539 27,400 -2,220 Descending FlightAware
11:51PM 49.7500 4.2620 234° Southwest 451 519 25,800 -2,160 Descending FlightAware
11:51PM 49.7415 4.2464 234° Southwest 1 1 25,700 -2,520 Descending FlightAware UK
11:51PM 49.7075 4.1752 234° Southwest 1 1 24,400 -2,340 Descending FlightAware UK
11:51PM 49.7090 4.1760 234° Southwest 445 512 24,500 -1,980 Climbing FlightAware
11:52PM 49.6620 4.0770 234° Southwest 434 499 23,100 -2,220 Descending FlightAware
11:53PM 49.6222 4.0008 234° Southwest 1 1 21,700 -2,280 Descending FlightAware UK
11:53PM 49.6150 3.9770 234° Southwest 422 486 21,600 -1,980 Descending FlightAware
11:53PM 49.5690 3.8810 234° Southwest 415 478 20,300 -2,040 Descending FlightAware
11:54PM 49.5240 3.7850 234° Southwest 409 471 18,900 -1,980 Descending FlightAware
11:55PM 49.4790 3.6920 233° Southwest 397 457 17,700 -1,920 Descending FlightAware
11:55PM 49.4460 3.6090 239° Southwest 392 451 16,500 -1,800 Descending FlightAware
11:56PM 49.4260 3.4920 255° West 377 434 15,400 -1,080 Descending FlightAware
11:57PM 49.4030 3.3900 251° West 349 402 15,000 -300 Descending FlightAware
11:57PM 49.3770 3.2930 248° West 312 359 15,000  Level FlightAware
11:58PM 49.3550 3.2110 248° West 315 362 15,000 -780 Level FlightAware
11:59PM 49.3330 3.1270 248° West 333 383 14,000 -2,280 Descending FlightAware
11:59PM 49.3040 3.0230 247° West 359 413 11,800 -2,280 Descending FlightAware
12:00AM 49.2820 2.9400 248° West 351 404 11,000 -660 Descending FlightAware
12:01AM 49.2580 2.8530 247° West 313 360 11,000 -120 Level FlightAware
12:01AM 49.2340 2.7640 248° West 285 328 10,900 -840 Descending FlightAware
12:02AM 49.2150 2.6970 247° West 294 338 9,900 -1,440 Descending FlightAware
12:03AM 49.2000 2.6430 247° West 290 334 9,400 -1,140 Descending FlightAware
12:03AM 49.1860 2.5920 247° West 287 330 8,900 -1,200 Descending FlightAware
12:03AM 49.1800 2.5350 261° West 278 320 8,300 -1,080 Descending FlightAware
12:04AM 49.1800 2.4900 270° West 271 312 8,000 -360 Descending FlightAware
12:04AM 49.1780 2.4370 267° West 249 287 8,000 -600 Level FlightAware
12:05AM 49.1770 2.3810 268° West 253 291 7,400 -1,680 Descending FlightAware
12:05AM 49.1700 2.3350 257° West 277 319 6,400 -2,040 Descending FlightAware
12:06AM 49.1560 2.2880 246° West 285 328 5,700 -1,320 Descending FlightAware
12:06AM 49.1390 2.2340 244° Southwest 279 321 5,200 -1,200 Descending FlightAware
12:07AM 49.1250 2.1860 246° West 277 319 4,600 -1,200 Descending FlightAware
12:07AM 49.1130 2.1440 246° West 275 316 4,200 -840 Descending FlightAware
12:07AM 49.1040 2.1260 233° Southwest 269 310 4,100 -660 Descending FlightAware
12:08AM 49.0860 2.1130 205° Southwest 259 298 3,900 -480 Descending FlightAware
12:08AM 49.0400 2.1170 177° South 241 277 3,700 -240 Descending FlightAware
12:08AM 49.0260 2.1330 143° Southeast 225 259 3,700  Level FlightAware
12:09AM 49.0200 2.1480 121° Southeast 213 245 3,700  Level FlightAware
12:09AM 49.0080 2.1840 117° Southeast 200 230 3,700  Level FlightAware
12:09AM 49.0070 2.1980 96° East 200 230 3,700  Level FlightAware
12:10AM 49.0090 2.2410 86° East 200 230 3,700 -540 Level FlightAware
12:10AM 49.0120 2.2860 84° East 208 239 3,200 -1,080 Descending FlightAware
12:10AM 49.0120 2.3000 90° East 208 239 3,000 -1,260 Descending FlightAware
12:11AM 49.0150 2.3420 84° East 197 227 2,400 -1,080 Descending FlightAware
12:11AM 49.0170 2.3770 85° East 180 207 2,000 -960 Descending FlightAware
12:12AM 49.0180 2.4060 87° East 161 185 1,600 -840 Descending FlightAware
12:12AM 49.0200 2.4350 84° East 146 168 1,300 -720 Descending FlightAware
12:13AM 49.0210 2.4610 87° East 144 166 1,000 -780 Descending FlightAware
12:13AM 49.0230 2.4900 84° East 141 162 600 -840 Descending FlightAware
12:14AM 49.0240 2.5120 86° East 136 157 300 -780 Descending FlightAware
12:14AM 49.0250 2.5370 86° East 130 150 -780 Descending FlightAware
12:14AM 49.0260 2.5500 83° East 39 45  Level FlightAware
12:15AM 49.0250 2.5540 111° Southeast 17 20  Level FlightAware
12:15AM 49.0240 2.5560 127° Southeast 7 8  Level FlightAware
12:16AM 49.0230 2.5560 180° South 12 14  Level FlightAware
12:17AM 49.0210 2.5570 162° South 17 20  Level FlightAware
12:17AM 49.0190 2.5570 180° South 11 13  Level FlightAware
12:18AM 49.0190 2.5550 270° West 10 12  Level FlightAware
12:18AM 49.0190 2.5540 270° West 11 13  Level FlightAware
12:18AM 49.0190 2.5520 270° West 16 18  Level FlightAware
12:19AM 49.0180 2.5480 249° West 21 24  Level FlightAware
12:19AM 49.0180 2.5450 270° West 23 26  Level FlightAware
12:19AM 49.0180 2.5430 270° West 18 21  Level FlightAware
12:20AM 49.0180 2.5390 270° West 16 18  Level FlightAware
12:20AM 49.0170 2.5370 233° Southwest 15 17  Level FlightAware
12:21AM 49.0160 2.5360 213° Southwest 14 16  Level FlightAware
12:21AM 49.0140 2.5360 180° South 16 18  Level FlightAware
12:21AM 49.0130 2.5370 147° Southeast 14 16  Level FlightAware
12:22AM 49.0120 2.5370 180° South 10 12  Level FlightAware
12:22AM 49.0120 2.5380 90° East 9 10  Level FlightAware
12:22AM 49.0120 2.5390 90° East 10 12  Level FlightAware
12:22AM 49.0120 2.5400 90° East 9 10  Level FlightAware
12:23AM 49.0120 2.5410 90° East 10 12  Level FlightAware
12:23AM 49.0130 2.5410 360° North 10 12  Level FlightAware
12:23AM 49.0140 2.5400 327° Northwest 9 10  Level FlightAware
12:24AM 49.0150 2.5400 360° North 8 9  Level FlightAware
12:25AM 49.0150 2.5390 270° West 1 1  Level FlightAware
12:27AM 49.0128 2.5500 107° East  Level Estimated
12:28AM 49.0128 2.5500 180° South  Level Estimated
12:29AM 49.0128 2.5500 180° South  Level Estimated
12:30AM 49.0128 2.5500 180° South  Level Estimated
12:31AM 49.0128 2.5500 180° South  Level Estimated
12:32AM 49.0128 2.5500 180° South  Level Estimated
12:33AM 49.0128 2.5500 180° South  Level Estimated
12:34AM 49.0128 2.5500 180° South  Level Estimated
12:35AM 49.0128 2.5500 180° South  Level Estimated
12:36AM 49.0128 2.5500 180° South  Level Estimated
12:37AM 49.0128 2.5500 180° South  Level Estimated
12:38AM 49.0128 2.5500 180° South  Level Estimated
12:39AM 49.0128 2.5500 180° South  Level Estimated
12:40AM 49.0128 2.5500 180° South  Level Estimated
12:41AM 49.0128 2.5500 180° South  Level Estimated
12:42AM 49.0128 2.5500 180° South  Level Estimated
12:43AM 49.0128 2.5500 180° South  Level Estimated
12:44AM 49.0128 2.5500 180° South  Level Estimated
12:45AM 49.0128 2.5500 180° South  Level Estimated
12:46AM 49.0128 2.5500 180° South  Level Estimated
12:47AM 49.0128 2.5500 180° South  Level Estimated